createdAt,value
2018-12-29T00:02:13.969Z,6.79
2018-12-29T00:04:42.716Z,6.79
2018-12-29T00:07:11.317Z,6.81
2018-12-29T00:09:39.864Z,6.76
2018-12-29T00:12:08.482Z,6.74
2018-12-29T00:14:37.150Z,6.79
2018-12-29T00:17:05.990Z,6.86
2018-12-29T00:19:35.691Z,6.93
2018-12-29T00:22:04.332Z,6.89
2018-12-29T00:24:32.810Z,6.89
2018-12-29T00:27:01.723Z,6.85
2018-12-29T00:29:30.236Z,6.82
2018-12-29T00:32:00.340Z,6.75
2018-12-29T00:34:28.864Z,6.75
2018-12-29T00:36:57.631Z,6.76
2018-12-29T00:39:26.191Z,6.76
2018-12-29T00:41:54.761Z,6.74
2018-12-29T00:44:23.301Z,6.80
2018-12-29T00:46:51.833Z,6.83
2018-12-29T00:49:20.282Z,6.86
2018-12-29T00:51:48.719Z,6.88
2018-12-29T00:54:17.198Z,6.90
2018-12-29T00:56:45.721Z,6.90
2018-12-29T00:59:14.281Z,6.88
2018-12-29T01:01:42.945Z,6.93
2018-12-29T01:04:11.471Z,6.97
2018-12-29T01:06:40.067Z,6.89
2018-12-29T01:09:08.603Z,6.92
2018-12-29T01:11:37.166Z,6.88
2018-12-29T01:14:06.752Z,6.92
2018-12-29T01:16:35.567Z,6.90
2018-12-29T01:19:04.307Z,6.88
2018-12-29T01:21:32.814Z,6.88
2018-12-29T01:24:01.785Z,6.79
2018-12-29T01:26:30.449Z,6.80
2018-12-29T01:28:59.744Z,6.82
2018-12-29T01:31:28.255Z,6.86
2018-12-29T01:33:56.811Z,6.86
2018-12-29T01:36:25.374Z,6.85
2018-12-29T01:38:53.860Z,6.82
2018-12-29T01:41:22.487Z,6.87
2018-12-29T01:43:50.877Z,6.91
2018-12-29T01:46:19.521Z,6.82
2018-12-29T01:48:48.099Z,6.93
2018-12-29T01:51:16.697Z,6.95
2018-12-29T01:53:47.428Z,6.86
2018-12-29T01:56:15.977Z,6.88
2018-12-29T01:58:44.511Z,6.89
2018-12-29T02:01:13.551Z,6.98
2018-12-29T02:03:42.243Z,6.97
2018-12-29T02:06:11.065Z,6.96
2018-12-29T02:08:39.640Z,6.96
2018-12-29T02:11:08.459Z,6.94
2018-12-29T02:13:37.068Z,6.92
2018-12-29T02:16:05.591Z,6.84
2018-12-29T02:18:34.046Z,6.84
2018-12-29T02:21:02.655Z,6.84
2018-12-29T02:23:31.087Z,6.96
2018-12-29T02:25:59.552Z,6.91
2018-12-29T02:28:28.411Z,6.91
2018-12-29T02:30:56.879Z,7.03
2018-12-29T02:33:25.475Z,6.94
2018-12-29T02:35:54.047Z,6.94
2018-12-29T02:38:22.492Z,6.91
2018-12-29T02:40:50.928Z,6.87
2018-12-29T02:43:19.454Z,6.77
2018-12-29T02:45:48.275Z,6.85
2018-12-29T02:48:16.881Z,6.85
2018-12-29T02:50:45.512Z,6.84
2018-12-29T02:53:14.300Z,6.85
2018-12-29T02:55:42.784Z,6.85
2018-12-29T02:58:11.347Z,6.89
2018-12-29T03:00:39.911Z,6.89
2018-12-29T03:03:09.965Z,6.94
2018-12-29T03:05:38.501Z,6.83
2018-12-29T03:08:07.207Z,6.86
2018-12-29T03:10:35.663Z,6.86
2018-12-29T03:13:04.229Z,6.87
2018-12-29T03:15:32.737Z,6.85
2018-12-29T03:18:01.351Z,6.96
2018-12-29T03:20:29.858Z,6.96
2018-12-29T03:22:58.337Z,6.95
2018-12-29T03:25:27.256Z,6.83
2018-12-29T03:27:55.797Z,6.83
2018-12-29T03:30:24.539Z,6.77
2018-12-29T03:32:53.294Z,6.77
2018-12-29T03:35:22.111Z,6.83
2018-12-29T03:37:50.829Z,6.74
2018-12-29T03:40:19.349Z,6.81
2018-12-29T03:42:48.024Z,6.82
2018-12-29T03:45:16.494Z,6.82
2018-12-29T03:47:45.117Z,6.86
2018-12-29T03:50:13.679Z,6.89
2018-12-29T03:52:42.230Z,6.80
2018-12-29T03:55:10.862Z,6.86
2018-12-29T03:57:39.308Z,6.83
2018-12-29T04:00:08.243Z,6.87
2018-12-29T04:02:36.764Z,6.86
2018-12-29T04:05:05.555Z,6.85
2018-12-29T04:07:40.112Z,6.86
2018-12-29T04:10:16.094Z,6.96
2018-12-29T04:12:46.997Z,6.85
2018-12-29T04:15:15.488Z,6.95
2018-12-29T04:17:44.035Z,6.95
2018-12-29T04:20:12.524Z,7.00
2018-12-29T04:22:41.349Z,7.00
2018-12-29T04:25:09.990Z,7.01
2018-12-29T04:27:38.621Z,7.00
2018-12-29T04:30:08.428Z,7.03
2018-12-29T04:32:37.057Z,7.01
2018-12-29T04:35:06.363Z,7.05
2018-12-29T04:37:35.273Z,7.03
2018-12-29T04:40:03.855Z,6.99
2018-12-29T04:42:32.930Z,6.94
2018-12-29T04:45:01.744Z,6.91
2018-12-29T04:47:30.474Z,6.98
2018-12-29T04:49:59.056Z,6.98
2018-12-29T04:52:27.597Z,6.98
2018-12-29T04:54:56.094Z,6.99
2018-12-29T04:57:24.629Z,6.98
2018-12-29T04:59:53.343Z,6.99
2018-12-29T05:02:21.845Z,6.97
2018-12-29T05:04:50.467Z,6.97
2018-12-29T05:07:19.071Z,7.04
2018-12-29T05:09:47.577Z,7.10
2018-12-29T05:12:16.204Z,7.02
2018-12-29T05:14:44.846Z,7.09
2018-12-29T05:17:13.348Z,7.06
2018-12-29T05:19:41.932Z,7.10
2018-12-29T05:22:10.415Z,7.13
2018-12-29T05:24:39.535Z,7.13
2018-12-29T05:27:08.099Z,7.13
2018-12-29T05:29:36.552Z,7.14
2018-12-29T05:32:05.010Z,7.28
2018-12-29T05:34:33.536Z,7.28
2018-12-29T05:37:02.038Z,7.29
2018-12-29T05:39:31.013Z,7.35
2018-12-29T05:41:59.438Z,7.38
2018-12-29T05:44:27.869Z,7.38
2018-12-29T05:46:56.300Z,7.35
2018-12-29T05:49:25.326Z,7.35
2018-12-29T05:51:53.793Z,7.40
2018-12-29T05:54:22.327Z,7.41
2018-12-29T05:56:50.818Z,7.45
2018-12-29T05:59:19.268Z,7.37
2018-12-29T06:01:47.771Z,7.37
2018-12-29T06:04:16.257Z,7.37
2018-12-29T06:06:44.782Z,7.39
2018-12-29T06:09:13.267Z,7.43
2018-12-29T06:11:41.850Z,7.39
2018-12-29T06:14:10.430Z,7.38
2018-12-29T06:16:38.906Z,7.45
2018-12-29T06:19:07.395Z,7.51
2018-12-29T06:21:35.845Z,7.56
2018-12-29T06:24:04.316Z,7.55
2018-12-29T06:26:32.875Z,7.50
2018-12-29T06:29:01.464Z,7.50
2018-12-29T06:31:29.977Z,7.56
2018-12-29T06:33:58.474Z,7.53
2018-12-29T06:36:26.958Z,7.50
2018-12-29T06:38:55.669Z,7.50
2018-12-29T06:41:24.209Z,7.61
2018-12-29T06:43:52.706Z,7.61
2018-12-29T06:46:21.280Z,7.61
2018-12-29T06:48:50.047Z,7.61
2018-12-29T06:51:18.828Z,7.57
2018-12-29T06:53:47.255Z,7.59
2018-12-29T06:56:15.744Z,7.55
2018-12-29T06:58:44.286Z,7.55
2018-12-29T07:01:12.979Z,7.56
2018-12-29T07:03:41.499Z,7.55
2018-12-29T07:06:09.995Z,7.49
2018-12-29T07:08:38.456Z,7.50
2018-12-29T07:11:06.960Z,7.45
2018-12-29T07:13:35.488Z,7.48
2018-12-29T07:16:04.029Z,7.50
2018-12-29T07:18:32.674Z,7.50
2018-12-29T07:21:01.454Z,7.53
2018-12-29T07:23:29.974Z,7.47
2018-12-29T07:25:58.818Z,7.44
2018-12-29T07:28:27.607Z,7.41
2018-12-29T07:30:56.093Z,7.41
2018-12-29T07:33:24.669Z,7.42
2018-12-29T07:35:54.182Z,7.41
2018-12-29T07:38:22.655Z,7.50
2018-12-29T07:40:51.199Z,7.49
2018-12-29T07:43:19.622Z,7.56
2018-12-29T07:45:48.096Z,7.61
2018-12-29T07:48:16.535Z,7.65
2018-12-29T07:50:45.092Z,7.58
2018-12-29T07:53:13.980Z,7.58
2018-12-29T07:55:42.460Z,7.64
2018-12-29T07:58:11.027Z,7.56
2018-12-29T08:00:39.495Z,7.56
2018-12-29T08:03:08.211Z,7.63
2018-12-29T08:05:36.799Z,7.64
2018-12-29T08:08:05.456Z,7.70
2018-12-29T08:10:34.063Z,7.75
2018-12-29T08:13:02.566Z,7.80
2018-12-29T08:15:31.228Z,7.85
2018-12-29T08:17:59.955Z,7.82
2018-12-29T08:20:28.437Z,7.84
2018-12-29T08:22:56.922Z,7.92
2018-12-29T08:25:25.601Z,7.94
2018-12-29T08:27:54.195Z,7.95
2018-12-29T08:30:23.192Z,8.05
2018-12-29T08:32:54.427Z,8.05
2018-12-29T08:35:26.804Z,8.12
2018-12-29T08:37:55.362Z,8.09
2018-12-29T08:40:24.225Z,8.02
2018-12-29T08:42:54.366Z,8.02
2018-12-29T08:45:23.018Z,7.97
2018-12-29T08:47:51.612Z,7.97
2018-12-29T08:50:25.749Z,7.98
2018-12-29T08:52:54.401Z,7.92
2018-12-29T08:55:23.500Z,7.96
2018-12-29T08:57:51.947Z,8.00
2018-12-29T09:00:20.493Z,8.02
2018-12-29T09:02:49.009Z,7.99
2018-12-29T09:05:17.619Z,7.99
2018-12-29T09:07:46.072Z,7.92
2018-12-29T09:10:14.683Z,7.81
2018-12-29T09:12:43.146Z,7.82
2018-12-29T09:15:11.599Z,7.85
2018-12-29T09:17:40.108Z,7.81
2018-12-29T09:20:08.752Z,7.85
2018-12-29T09:22:37.644Z,7.87
2018-12-29T09:25:06.158Z,7.89
2018-12-29T09:27:34.646Z,7.95
2018-12-29T09:30:03.306Z,7.95
2018-12-29T09:32:33.895Z,7.99
2018-12-29T09:35:03.889Z,8.03
2018-12-29T09:37:32.454Z,8.08
2018-12-29T09:40:01.272Z,8.11
2018-12-29T09:42:29.730Z,8.12
2018-12-29T09:44:58.356Z,8.21
2018-12-29T09:47:26.876Z,8.29
2018-12-29T09:49:55.327Z,8.29
2018-12-29T09:52:23.828Z,8.29
2018-12-29T09:54:52.365Z,8.35
2018-12-29T09:57:20.864Z,8.42
2018-12-29T09:59:49.372Z,8.51
2018-12-29T10:02:17.983Z,8.61
2018-12-29T10:04:46.581Z,8.60
2018-12-29T10:07:15.058Z,8.62
2018-12-29T10:09:43.580Z,8.74
2018-12-29T10:12:12.061Z,8.79
2018-12-29T10:14:40.542Z,8.94
2018-12-29T10:17:09.313Z,9.01
2018-12-29T10:19:39.361Z,8.93
2018-12-29T10:22:07.990Z,8.96
2018-12-29T10:24:36.877Z,9.08
2018-12-29T10:27:05.618Z,9.20
2018-12-29T10:29:34.271Z,9.21
2018-12-29T10:32:02.766Z,9.18
2018-12-29T10:34:31.372Z,9.08
2018-12-29T10:36:59.940Z,9.09
2018-12-29T10:39:28.514Z,9.11
2018-12-29T10:41:57.111Z,9.12
2018-12-29T10:44:25.853Z,9.11
2018-12-29T10:46:54.533Z,9.04
2018-12-29T10:49:23.033Z,9.04
2018-12-29T10:51:51.622Z,9.11
2018-12-29T10:54:23.761Z,9.14
2018-12-29T10:56:52.528Z,9.13
2018-12-29T10:59:21.270Z,9.09
2018-12-29T11:01:50.009Z,9.06
2018-12-29T11:04:18.777Z,8.91
2018-12-29T11:06:47.534Z,8.79
2018-12-29T11:09:16.145Z,8.85
2018-12-29T11:11:44.713Z,8.85
2018-12-29T11:14:13.335Z,8.87
2018-12-29T11:16:41.951Z,8.78
2018-12-29T11:19:11.916Z,8.74
2018-12-29T11:21:40.357Z,8.74
2018-12-29T11:24:08.920Z,8.74
2018-12-29T11:26:37.505Z,8.75
2018-12-29T11:29:06.174Z,8.77
2018-12-29T11:31:34.688Z,8.77
2018-12-29T11:34:04.605Z,8.65
2018-12-29T11:36:33.212Z,8.69
2018-12-29T11:39:01.691Z,8.70
2018-12-29T11:41:30.157Z,8.73
2018-12-29T11:43:58.766Z,8.74
2018-12-29T11:46:27.376Z,8.73
2018-12-29T11:48:56.087Z,8.79
2018-12-29T11:51:24.550Z,8.85
2018-12-29T11:53:53.119Z,8.89
2018-12-29T11:56:21.575Z,8.91
2018-12-29T11:58:50.078Z,8.87
2018-12-29T12:01:18.517Z,8.81
2018-12-29T12:03:47.047Z,8.71
2018-12-29T12:06:15.523Z,8.75
2018-12-29T12:08:43.969Z,8.82
2018-12-29T12:11:12.455Z,8.81
2018-12-29T12:13:40.920Z,8.78
2018-12-29T12:16:09.451Z,8.72
2018-12-29T12:18:37.890Z,8.70
2018-12-29T12:21:12.382Z,8.67
2018-12-29T12:23:41.103Z,8.72
2018-12-29T12:26:09.630Z,8.75
2018-12-29T12:28:39.848Z,8.65
2018-12-29T12:31:10.248Z,8.68
2018-12-29T12:33:38.895Z,8.65
2018-12-29T12:36:07.642Z,8.69
2018-12-29T12:38:36.510Z,8.69
2018-12-29T12:41:05.094Z,8.69
2018-12-29T12:43:34.756Z,8.62
2018-12-29T12:46:03.525Z,8.53
2018-12-29T12:48:32.236Z,8.52
2018-12-29T12:51:01.090Z,8.45
2018-12-29T12:53:29.755Z,8.48
2018-12-29T12:55:58.392Z,8.48
2018-12-29T12:58:27.323Z,8.52
2018-12-29T13:00:58.098Z,8.46
2018-12-29T13:03:27.039Z,8.44
2018-12-29T13:05:55.664Z,8.42
2018-12-29T13:08:25.635Z,8.36
2018-12-29T13:10:54.230Z,8.39
2018-12-29T13:13:22.698Z,8.42
2018-12-29T13:15:51.303Z,8.42
2018-12-29T13:18:21.881Z,8.44
2018-12-29T13:20:50.384Z,8.44
2018-12-29T13:23:18.980Z,8.48
2018-12-29T13:25:47.464Z,8.48
2018-12-29T13:28:16.117Z,8.53
2018-12-29T13:30:44.732Z,8.55
2018-12-29T13:33:13.252Z,8.55
2018-12-29T13:35:41.790Z,8.55
2018-12-29T13:38:10.349Z,8.49
2018-12-29T13:40:38.799Z,8.49
2018-12-29T13:43:07.329Z,8.58
2018-12-29T13:45:35.888Z,8.65
2018-12-29T13:48:04.343Z,8.65
2018-12-29T13:50:33.005Z,8.66
2018-12-29T13:53:01.511Z,8.69
2018-12-29T13:55:30.114Z,8.71
2018-12-29T13:57:59.612Z,8.75
2018-12-29T14:00:28.159Z,8.75
2018-12-29T14:02:56.919Z,8.77
2018-12-29T14:05:25.911Z,8.77
2018-12-29T14:07:54.394Z,8.81
2018-12-29T14:10:22.928Z,8.86
2018-12-29T14:12:51.457Z,8.84
2018-12-29T14:15:19.985Z,8.82
2018-12-29T14:17:48.699Z,8.84
2018-12-29T14:20:17.323Z,8.80
2018-12-29T14:22:45.879Z,8.77
2018-12-29T14:25:14.414Z,8.78
2018-12-29T14:27:42.894Z,8.81
2018-12-29T14:30:11.839Z,8.85
2018-12-29T14:32:40.332Z,8.85
2018-12-29T14:35:08.864Z,8.86
2018-12-29T14:37:37.504Z,8.85
2018-12-29T14:40:07.043Z,8.85
2018-12-29T14:42:35.946Z,8.87
2018-12-29T14:45:04.783Z,8.90
2018-12-29T14:47:33.275Z,8.90
2018-12-29T14:50:01.927Z,8.93
2018-12-29T14:52:30.445Z,8.95
2018-12-29T14:54:59.270Z,8.96
2018-12-29T14:57:27.997Z,8.97
2018-12-29T14:59:56.643Z,8.97
2018-12-29T15:02:25.465Z,8.98
2018-12-29T15:04:54.182Z,8.91
2018-12-29T15:07:22.716Z,8.89
2018-12-29T15:09:52.837Z,8.89
2018-12-29T15:12:21.746Z,8.96
2018-12-29T15:14:50.287Z,8.95
2018-12-29T15:17:18.937Z,8.95
2018-12-29T15:19:47.476Z,8.97
2018-12-29T15:22:16.396Z,8.96
2018-12-29T15:24:45.595Z,8.96
2018-12-29T15:27:14.379Z,8.91
2018-12-29T15:32:18.534Z,8.88
2018-12-29T15:34:47.231Z,8.88
2018-12-29T15:37:15.781Z,8.80
2018-12-29T15:39:44.277Z,8.74
2018-12-29T15:42:12.737Z,8.73
2018-12-29T15:44:53.153Z,8.70
2018-12-29T15:47:11.439Z,8.63
2018-12-29T15:49:39.900Z,8.60
2018-12-29T15:52:08.323Z,8.64
2018-12-29T15:54:56.528Z,8.63
2018-12-29T15:57:25.061Z,8.63
2018-12-29T15:59:53.817Z,8.61
2018-12-29T16:02:22.446Z,8.51
2018-12-29T16:04:52.809Z,8.45
2018-12-29T16:07:21.230Z,8.43
2018-12-29T16:09:49.932Z,8.44
2018-12-29T16:12:37.654Z,8.50
2018-12-29T16:15:46.073Z,8.47
2018-12-29T16:18:14.526Z,8.41
2018-12-29T16:20:43.107Z,8.48
2018-12-29T16:23:11.633Z,8.44
2018-12-29T16:25:40.432Z,8.38
2018-12-29T16:28:08.956Z,8.40
2018-12-29T16:30:37.721Z,8.42
2018-12-29T16:33:06.240Z,8.41
2018-12-29T16:35:34.740Z,8.34
2018-12-29T16:38:06.819Z,8.37
2018-12-29T16:40:35.292Z,8.38
2018-12-29T16:43:24.640Z,8.29
2018-12-29T16:45:56.416Z,8.28
2018-12-29T16:48:25.437Z,8.34
2018-12-29T16:50:54.217Z,8.29
2018-12-29T16:53:29.246Z,8.28
2018-12-29T16:55:53.688Z,8.22
2018-12-29T16:58:22.627Z,8.25
2018-12-29T17:00:53.394Z,8.31
2018-12-29T17:03:22.140Z,8.31
2018-12-29T17:06:10.364Z,8.28
2018-12-29T17:08:38.882Z,8.25
2018-12-29T17:11:07.623Z,8.26
2018-12-29T17:13:37.414Z,8.12
2018-12-29T17:16:06.236Z,8.14
2018-12-29T17:21:31.416Z,8.10
2018-12-29T17:27:29.475Z,8.11
2018-12-29T17:30:17.804Z,8.20
2018-12-29T17:32:48.051Z,8.20
2018-12-29T17:35:17.106Z,8.17
2018-12-29T17:37:45.790Z,8.24
2018-12-29T17:40:14.837Z,8.22
2018-12-29T17:42:43.270Z,8.22
2018-12-29T17:45:12.348Z,8.28
2018-12-29T17:47:41.133Z,8.26
2018-12-29T17:50:30.193Z,8.34
2018-12-29T17:52:59.361Z,8.32
2018-12-29T17:55:47.377Z,8.34
2018-12-29T17:58:16.015Z,8.31
2018-12-29T18:00:44.809Z,8.30
2018-12-29T18:05:44.457Z,8.30
2018-12-29T18:08:13.068Z,8.36
2018-12-29T18:10:41.780Z,8.37
2018-12-29T18:13:10.454Z,8.37
2018-12-29T18:15:39.030Z,8.38
2018-12-29T18:18:07.818Z,8.47
2018-12-29T18:20:36.732Z,8.46
2018-12-29T18:23:05.601Z,8.47
2018-12-29T18:28:36.357Z,8.50
2018-12-29T18:31:05.004Z,8.49
2018-12-29T18:33:37.395Z,8.43
2018-12-29T18:36:23.930Z,8.40
2018-12-29T18:38:52.366Z,8.40
2018-12-29T18:43:58.115Z,8.47
2018-12-29T18:46:26.562Z,8.50
2018-12-29T18:48:55.107Z,8.43
2018-12-29T18:51:23.574Z,8.38
2018-12-29T18:53:52.081Z,8.41
2018-12-29T18:56:20.542Z,8.38
2018-12-29T18:59:08.410Z,8.39
2018-12-29T19:01:37.043Z,8.42
2018-12-29T19:04:05.479Z,8.42
2018-12-29T19:06:33.976Z,8.45
2018-12-29T19:11:51.598Z,8.55
2018-12-29T19:14:20.036Z,8.59
2018-12-29T19:16:48.515Z,8.63
2018-12-29T19:19:17.021Z,8.65
2018-12-29T19:21:45.659Z,8.67
2018-12-29T19:24:14.296Z,8.65
2018-12-29T19:26:44.681Z,8.65
2018-12-29T19:29:13.415Z,8.64
2018-12-29T19:31:44.613Z,8.64
2018-12-29T19:34:12.938Z,8.63
2018-12-29T19:36:42.539Z,8.66
2018-12-29T19:39:14.174Z,8.67
2018-12-29T19:41:47.999Z,8.72
2018-12-29T19:47:02.526Z,8.76
2018-12-29T19:49:31.522Z,8.76
2018-12-29T19:52:00.023Z,8.77
2018-12-29T19:56:58.886Z,8.79
2018-12-29T19:59:29.055Z,8.79
2018-12-29T20:01:57.535Z,8.80
2018-12-29T20:04:25.996Z,8.76
2018-12-29T20:06:56.146Z,8.76
2018-12-29T20:09:24.655Z,8.77
2018-12-29T20:11:53.179Z,8.80
2018-12-29T20:14:22.085Z,8.80
2018-12-29T20:16:50.731Z,8.79
2018-12-29T20:19:19.399Z,8.86
2018-12-29T20:21:48.234Z,8.90
2018-12-29T20:24:16.771Z,8.94
2018-12-29T20:26:45.741Z,9.02
2018-12-29T20:29:14.328Z,9.05
2018-12-29T20:31:42.926Z,9.08
2018-12-29T20:34:11.889Z,9.10
2018-12-29T20:36:41.070Z,9.07
2018-12-29T20:39:10.095Z,9.07
2018-12-29T20:41:38.834Z,9.05
2018-12-29T20:44:07.310Z,9.05
2018-12-29T20:46:35.787Z,8.99
2018-12-29T20:49:04.255Z,8.97
2018-12-29T20:51:33.089Z,8.95
2018-12-29T20:54:01.558Z,8.93
2018-12-29T20:56:30.003Z,8.89
2018-12-29T20:58:58.524Z,8.82
2018-12-29T21:01:26.961Z,8.80
2018-12-29T21:03:55.394Z,8.77
2018-12-29T21:06:23.852Z,8.75
2018-12-29T21:09:14.099Z,8.74
2018-12-29T21:11:42.677Z,8.73
2018-12-29T21:14:11.103Z,8.57
2018-12-29T21:16:39.644Z,8.54
2018-12-29T21:19:08.068Z,8.42
2018-12-29T21:21:48.969Z,8.33
2018-12-29T21:24:17.798Z,8.33
2018-12-29T21:32:18.487Z,8.37
2018-12-29T21:34:47.246Z,8.32
2018-12-29T21:37:15.676Z,8.30
2018-12-29T21:42:20.985Z,8.25
2018-12-29T21:47:39.866Z,8.17
2018-12-29T21:50:08.387Z,8.16
2018-12-29T21:52:36.815Z,8.19
2018-12-29T21:57:54.458Z,8.14
2018-12-29T22:00:23.191Z,8.11
2018-12-29T22:02:51.646Z,8.00
2018-12-29T22:05:20.080Z,8.00
2018-12-29T22:07:48.530Z,8.01
2018-12-29T22:10:16.972Z,7.95
2018-12-29T22:12:45.415Z,7.95
2018-12-29T22:15:13.847Z,7.90
2018-12-29T22:18:01.660Z,7.97
2018-12-29T22:20:33.442Z,7.97
2018-12-29T22:23:12.274Z,7.99
2018-12-29T22:26:01.659Z,8.00
2018-12-29T22:28:30.300Z,7.98
2018-12-29T22:30:59.102Z,7.96
2018-12-29T22:36:23.456Z,7.96
2018-12-29T22:38:52.647Z,7.93
2018-12-29T22:41:21.169Z,7.95
2018-12-29T22:43:49.732Z,7.94
2018-12-29T22:46:20.381Z,7.94
2018-12-29T22:48:48.827Z,7.91
2018-12-29T22:51:17.258Z,7.89
2018-12-29T22:53:45.748Z,7.91
2018-12-29T22:56:14.192Z,7.91
2018-12-29T22:58:44.361Z,7.92
2018-12-29T23:01:32.329Z,7.91
2018-12-29T23:04:00.743Z,7.91
2018-12-29T23:06:29.169Z,7.93
2018-12-29T23:11:33.936Z,7.91
2018-12-29T23:14:21.710Z,7.91
2018-12-29T23:17:11.382Z,7.88
2018-12-29T23:19:39.868Z,7.88
2018-12-29T23:22:08.580Z,7.92
2018-12-29T23:24:37.082Z,7.94
2018-12-29T23:27:05.544Z,7.94
2018-12-29T23:29:33.956Z,7.97
2018-12-29T23:32:02.418Z,7.95
2018-12-29T23:34:31.121Z,7.94
2018-12-29T23:37:18.912Z,7.95
2018-12-29T23:39:47.715Z,7.95
2018-12-29T23:45:11.723Z,7.88
2018-12-29T23:48:01.207Z,7.97
2018-12-29T23:50:29.651Z,7.97
2018-12-29T23:52:58.357Z,7.98
2018-12-29T23:55:27.201Z,8.03
2018-12-29T23:57:55.606Z,8.02
